createdAt,value
2022-08-31T00:01:03.091Z,65.14
2022-08-31T00:03:47.934Z,65.44
2022-08-31T00:06:15.993Z,65.54
2022-08-31T00:08:43.426Z,65.72
2022-08-31T00:11:13.986Z,65.69
2022-08-31T00:13:41.590Z,65.99
2022-08-31T00:16:10.398Z,65.63
2022-08-31T00:18:37.927Z,65.36
2022-08-31T00:21:05.638Z,65.40
2022-08-31T00:23:33.070Z,65.31
2022-08-31T00:26:00.509Z,65.76
2022-08-31T00:28:27.947Z,65.26
2022-08-31T00:30:55.382Z,65.50
2022-08-31T00:33:24.113Z,65.49
2022-08-31T00:35:51.542Z,65.75
2022-08-31T00:38:18.970Z,65.31
2022-08-31T00:40:47.066Z,65.42
2022-08-31T00:43:30.021Z,65.55
2022-08-31T00:45:57.735Z,65.47
2022-08-31T00:48:26.642Z,65.33
2022-08-31T00:50:54.116Z,65.53
2022-08-31T00:53:21.579Z,65.36
2022-08-31T00:55:49.009Z,65.30
2022-08-31T00:58:16.514Z,65.25
2022-08-31T01:00:45.030Z,65.48
2022-08-31T01:03:12.699Z,65.51
2022-08-31T01:05:41.469Z,65.59
2022-08-31T01:08:08.914Z,65.79
2022-08-31T01:10:37.817Z,65.47
2022-08-31T01:13:05.482Z,65.71
2022-08-31T01:15:33.585Z,65.61
2022-08-31T01:18:02.295Z,65.48
2022-08-31T01:20:35.714Z,65.61
2022-08-31T01:23:08.826Z,65.41
2022-08-31T01:25:36.503Z,65.25
2022-08-31T01:28:06.439Z,65.29
2022-08-31T01:30:34.189Z,65.50
2022-08-31T01:33:01.733Z,65.61
2022-08-31T01:35:29.189Z,65.32
2022-08-31T01:37:57.272Z,65.58
2022-08-31T01:40:27.569Z,65.62
2022-08-31T01:42:55.072Z,65.79
2022-08-31T01:45:22.618Z,65.64
2022-08-31T01:47:50.064Z,65.67
2022-08-31T01:50:18.746Z,65.62
2022-08-31T01:52:46.241Z,65.57
2022-08-31T01:55:14.565Z,65.71
2022-08-31T01:57:43.308Z,65.73
2022-08-31T02:00:31.441Z,65.63
2022-08-31T02:02:59.732Z,65.04
2022-08-31T02:05:28.151Z,64.64
2022-08-31T02:07:55.594Z,64.65
2022-08-31T02:10:23.336Z,64.76
2022-08-31T02:12:52.482Z,64.91
2022-08-31T02:15:29.955Z,64.89
2022-08-31T02:17:57.449Z,65.35
2022-08-31T02:20:25.015Z,65.33
2022-08-31T02:22:52.505Z,65.52
2022-08-31T02:25:20.168Z,65.42
2022-08-31T02:27:47.762Z,65.72
2022-08-31T02:30:18.464Z,65.46
2022-08-31T02:32:45.990Z,65.41
2022-08-31T02:35:13.749Z,65.25
2022-08-31T02:37:41.223Z,65.07
2022-08-31T02:40:12.170Z,65.04
2022-08-31T02:42:52.802Z,64.92
2022-08-31T02:45:24.174Z,65.03
2022-08-31T02:47:52.155Z,65.10
2022-08-31T02:50:26.023Z,65.25
2022-08-31T02:52:55.293Z,65.10
2022-08-31T02:55:22.786Z,65.26
2022-08-31T02:57:50.915Z,65.13
2022-08-31T03:00:19.338Z,65.24
2022-08-31T03:02:48.330Z,65.10
2022-08-31T03:05:15.879Z,65.07
2022-08-31T03:07:43.529Z,65.22
2022-08-31T03:10:13.999Z,65.26
2022-08-31T03:12:46.504Z,65.41
2022-08-31T03:15:14.272Z,65.17
2022-08-31T03:17:41.856Z,65.36
2022-08-31T03:20:12.072Z,65.16
2022-08-31T03:22:39.711Z,65.15
2022-08-31T03:25:08.662Z,65.15
2022-08-31T03:27:37.147Z,65.22
2022-08-31T03:30:07.445Z,65.18
2022-08-31T03:32:36.152Z,65.17
2022-08-31T03:35:03.693Z,65.30
2022-08-31T03:37:32.779Z,65.37
2022-08-31T03:40:01.664Z,65.30
2022-08-31T03:42:32.128Z,65.24
2022-08-31T03:44:59.959Z,65.39
2022-08-31T03:47:30.972Z,65.39
2022-08-31T03:49:58.562Z,65.31
2022-08-31T03:52:30.967Z,65.32
2022-08-31T03:55:06.854Z,65.19
2022-08-31T03:57:35.742Z,65.25
2022-08-31T04:00:03.654Z,65.05
2022-08-31T04:02:43.170Z,65.22
2022-08-31T04:05:44.063Z,65.06
2022-08-31T04:08:14.421Z,65.26
2022-08-31T04:11:06.058Z,65.19
2022-08-31T04:13:56.411Z,65.21
2022-08-31T04:16:44.234Z,65.16
2022-08-31T04:19:31.517Z,65.06
2022-08-31T04:22:08.389Z,65.09
2022-08-31T04:24:40.394Z,65.09
2022-08-31T04:27:11.228Z,65.17
2022-08-31T04:29:39.475Z,65.21
2022-08-31T04:32:06.935Z,64.94
2022-08-31T04:34:34.462Z,64.72
2022-08-31T04:37:01.945Z,64.74
2022-08-31T04:39:32.840Z,64.64
2022-08-31T04:42:00.472Z,64.59
2022-08-31T04:44:31.366Z,64.65
2022-08-31T04:46:59.865Z,64.55
2022-08-31T04:49:27.322Z,64.38
2022-08-31T04:51:54.801Z,64.54
2022-08-31T04:54:22.377Z,64.56
2022-08-31T04:56:49.847Z,64.30
2022-08-31T04:59:27.663Z,64.36
2022-08-31T05:02:09.944Z,64.13
2022-08-31T05:04:41.343Z,63.98
2022-08-31T05:07:08.824Z,64.06
2022-08-31T05:09:37.687Z,64.03
2022-08-31T05:12:05.161Z,64.21
2022-08-31T05:14:32.731Z,63.84
2022-08-31T05:17:06.287Z,63.79
2022-08-31T05:19:42.528Z,63.82
2022-08-31T05:22:10.105Z,63.57
2022-08-31T05:24:39.664Z,63.40
2022-08-31T05:27:07.396Z,63.21
2022-08-31T05:29:36.786Z,62.49
2022-08-31T05:32:28.507Z,61.84
2022-08-31T05:35:04.142Z,61.69
2022-08-31T05:37:39.145Z,60.81
2022-08-31T05:40:09.808Z,60.45
2022-08-31T05:42:41.109Z,60.32
2022-08-31T05:45:09.758Z,59.73
2022-08-31T05:47:38.617Z,59.51
2022-08-31T05:50:11.793Z,59.14
2022-08-31T05:52:43.641Z,59.11
2022-08-31T05:55:11.956Z,58.67
2022-08-31T05:57:40.351Z,58.65
2022-08-31T06:00:09.122Z,58.31
2022-08-31T06:02:42.356Z,58.26
2022-08-31T06:05:13.923Z,57.75
2022-08-31T06:07:43.292Z,57.40
2022-08-31T06:12:53.316Z,56.66
2022-08-31T06:15:20.946Z,56.59
2022-08-31T06:17:48.399Z,56.67
2022-08-31T06:20:18.283Z,56.19
2022-08-31T06:22:47.883Z,56.43
2022-08-31T06:25:24.436Z,56.55
2022-08-31T06:27:53.006Z,56.53
2022-08-31T06:30:23.029Z,56.49
2022-08-31T06:32:51.955Z,56.34
2022-08-31T06:35:27.156Z,56.43
2022-08-31T06:38:13.860Z,56.42
2022-08-31T06:40:52.171Z,56.48
2022-08-31T06:43:32.050Z,56.29
2022-08-31T06:46:02.715Z,56.66
2022-08-31T06:48:33.336Z,56.75
2022-08-31T06:51:02.070Z,56.71
2022-08-31T06:53:30.031Z,56.65
2022-08-31T06:56:21.048Z,56.61
2022-08-31T06:59:22.560Z,56.92
2022-08-31T07:02:10.366Z,56.74
2022-08-31T07:04:39.074Z,56.82
2022-08-31T07:07:08.811Z,56.75
2022-08-31T07:09:36.297Z,56.63
2022-08-31T07:12:04.836Z,56.90
2022-08-31T07:14:32.351Z,56.89
2022-08-31T07:16:59.924Z,56.84
2022-08-31T07:19:27.753Z,56.91
2022-08-31T07:21:57.323Z,56.85
2022-08-31T07:24:28.496Z,56.86
2022-08-31T07:26:58.076Z,56.71
2022-08-31T07:29:32.973Z,56.53
2022-08-31T07:32:00.765Z,56.53
2022-08-31T07:34:28.931Z,56.42
2022-08-31T07:37:52.717Z,56.36
2022-08-31T07:40:43.978Z,56.43
2022-08-31T07:43:13.729Z,56.52
2022-08-31T07:45:41.760Z,56.51
2022-08-31T07:48:09.606Z,56.51
2022-08-31T07:50:53.128Z,56.18
2022-08-31T07:53:47.521Z,56.57
2022-08-31T07:56:42.003Z,56.54
2022-08-31T07:59:14.934Z,56.63
2022-08-31T08:01:45.024Z,56.63
2022-08-31T08:04:21.743Z,56.89
2022-08-31T08:07:21.500Z,56.90
2022-08-31T08:10:09.499Z,56.66
2022-08-31T08:12:48.790Z,56.54
2022-08-31T08:15:26.133Z,56.63
2022-08-31T08:18:17.028Z,56.48
2022-08-31T08:20:49.513Z,56.03
2022-08-31T08:23:25.928Z,55.80
2022-08-31T08:26:21.106Z,55.45
2022-08-31T08:29:11.032Z,54.92
2022-08-31T08:31:42.713Z,55.20
2022-08-31T08:34:10.292Z,55.31
2022-08-31T08:36:40.297Z,54.84
2022-08-31T08:39:09.579Z,54.79
2022-08-31T08:41:42.160Z,55.12
2022-08-31T08:44:14.704Z,55.08
2022-08-31T08:46:48.726Z,55.12
2022-08-31T08:49:20.949Z,54.90
2022-08-31T08:51:52.922Z,54.80
2022-08-31T08:54:30.812Z,55.52
2022-08-31T08:56:59.597Z,55.11
2022-08-31T08:59:30.324Z,55.08
2022-08-31T09:02:01.871Z,54.78
2022-08-31T09:04:48.467Z,55.07
2022-08-31T09:07:33.612Z,55.04
2022-08-31T09:10:03.935Z,54.99
2022-08-31T09:12:36.056Z,54.76
2022-08-31T09:15:16.094Z,54.86
2022-08-31T09:17:49.356Z,54.92
2022-08-31T09:20:17.677Z,54.61
2022-08-31T09:22:48.524Z,54.66
2022-08-31T09:25:18.977Z,54.59
2022-08-31T09:28:02.626Z,54.78
2022-08-31T09:30:38.668Z,54.59
2022-08-31T09:33:06.286Z,54.56
2022-08-31T09:35:40.248Z,54.53
2022-08-31T09:38:10.019Z,54.47
2022-08-31T09:40:39.898Z,54.74
2022-08-31T09:43:09.966Z,54.55
2022-08-31T09:45:42.358Z,54.44
2022-08-31T09:48:10.553Z,54.57
2022-08-31T09:50:44.782Z,55.01
2022-08-31T09:53:35.757Z,54.93
2022-08-31T09:56:13.965Z,55.01
2022-08-31T09:58:43.264Z,55.13
2022-08-31T10:01:15.776Z,55.34
2022-08-31T10:03:47.651Z,55.51
2022-08-31T10:06:45.353Z,55.54
2022-08-31T10:09:20.484Z,55.59
2022-08-31T10:11:48.400Z,55.83
2022-08-31T10:14:24.053Z,55.73
2022-08-31T10:16:54.758Z,55.95
2022-08-31T10:19:30.266Z,56.02
2022-08-31T10:22:00.004Z,56.03
2022-08-31T10:24:33.349Z,55.94
2022-08-31T10:27:08.129Z,56.44
2022-08-31T10:29:39.920Z,56.27
2022-08-31T10:32:15.482Z,56.35
2022-08-31T10:35:02.856Z,56.56
2022-08-31T10:37:41.709Z,56.38
2022-08-31T10:40:11.289Z,56.59
2022-08-31T10:42:39.992Z,56.45
2022-08-31T10:45:15.190Z,56.83
2022-08-31T10:47:49.119Z,56.56
2022-08-31T10:50:20.150Z,57.02
2022-08-31T10:52:52.017Z,56.89
2022-08-31T10:55:25.601Z,56.87
2022-08-31T10:57:56.285Z,57.00
2022-08-31T11:00:41.815Z,56.89
2022-08-31T11:03:13.213Z,56.91
2022-08-31T11:05:42.253Z,56.97
2022-08-31T11:08:24.598Z,56.97
2022-08-31T11:10:52.783Z,56.80
2022-08-31T11:13:29.099Z,57.12
2022-08-31T11:16:02.839Z,56.83
2022-08-31T11:18:50.657Z,57.06
2022-08-31T11:21:36.196Z,57.05
2022-08-31T11:24:16.364Z,57.20
2022-08-31T11:26:51.251Z,57.30
2022-08-31T11:29:32.699Z,57.00
2022-08-31T11:32:06.782Z,57.10
2022-08-31T11:34:46.907Z,57.34
2022-08-31T11:37:14.895Z,57.13
2022-08-31T11:39:45.457Z,57.29
2022-08-31T11:42:41.908Z,57.31
2022-08-31T11:45:17.996Z,57.09
2022-08-31T11:47:54.852Z,57.16
2022-08-31T11:51:05.052Z,57.40
2022-08-31T11:53:35.217Z,56.93
2022-08-31T11:56:03.893Z,57.24
2022-08-31T11:58:33.688Z,57.24
2022-08-31T12:01:18.952Z,56.97
2022-08-31T12:03:51.349Z,57.43
2022-08-31T12:07:07.388Z,57.58
2022-08-31T12:10:18.969Z,57.67
2022-08-31T12:13:18.409Z,57.73
2022-08-31T12:16:08.513Z,57.58
2022-08-31T12:19:08.600Z,57.78
2022-08-31T12:22:00.779Z,57.47
2022-08-31T12:24:32.759Z,57.69
2022-08-31T12:27:10.899Z,57.34
2022-08-31T12:29:40.451Z,57.51
2022-08-31T12:32:29.795Z,57.47
2022-08-31T12:35:01.745Z,57.38
2022-08-31T12:37:30.692Z,57.77
2022-08-31T12:40:13.074Z,57.62
2022-08-31T12:42:42.381Z,57.68
2022-08-31T12:45:12.517Z,57.68
2022-08-31T12:47:46.333Z,57.49
2022-08-31T12:50:18.095Z,57.65
2022-08-31T12:53:01.648Z,57.87
2022-08-31T12:55:34.255Z,57.53
2022-08-31T12:58:18.737Z,57.63
2022-08-31T13:00:46.174Z,57.56
2022-08-31T13:03:21.108Z,57.68
2022-08-31T13:06:06.434Z,57.37
2022-08-31T13:08:36.478Z,57.35
2022-08-31T13:11:14.780Z,57.65
2022-08-31T13:13:42.355Z,57.47
2022-08-31T13:16:10.027Z,57.51
2022-08-31T13:18:38.793Z,57.46
2022-08-31T13:21:06.657Z,57.78
2022-08-31T13:23:36.741Z,57.52
2022-08-31T13:26:14.986Z,57.57
2022-08-31T13:28:42.399Z,57.58
2022-08-31T13:31:10.391Z,57.32
2022-08-31T13:33:40.403Z,57.38
2022-08-31T13:36:10.707Z,57.48
2022-08-31T13:38:44.932Z,57.46
2022-08-31T13:41:18.197Z,57.42
2022-08-31T13:43:58.681Z,57.30
2022-08-31T13:46:41.914Z,57.25
2022-08-31T13:49:30.846Z,57.23
2022-08-31T13:51:58.295Z,57.39
2022-08-31T13:54:26.907Z,57.33
2022-08-31T13:56:58.761Z,57.27
2022-08-31T13:59:34.659Z,57.33
2022-08-31T14:02:04.527Z,57.18
2022-08-31T14:05:00.390Z,57.41
2022-08-31T14:07:29.695Z,57.27
2022-08-31T14:09:58.044Z,57.24
2022-08-31T14:12:35.515Z,57.44
2022-08-31T14:15:18.808Z,56.79
2022-08-31T14:18:23.953Z,56.68
2022-08-31T14:20:37.525Z,56.73
2022-08-31T14:23:28.121Z,56.85
2022-08-31T14:25:56.515Z,56.31
2022-08-31T14:28:38.623Z,56.28
2022-08-31T14:31:12.455Z,56.26
2022-08-31T14:33:40.624Z,55.48
2022-08-31T14:36:14.508Z,55.38
2022-08-31T14:38:43.186Z,55.57
2022-08-31T14:41:11.759Z,55.30
2022-08-31T14:43:39.966Z,55.28
2022-08-31T14:46:07.663Z,55.13
2022-08-31T14:48:35.947Z,55.26
2022-08-31T14:51:06.476Z,55.11
2022-08-31T14:53:37.988Z,55.16
2022-08-31T14:56:06.620Z,55.44
2022-08-31T14:58:38.011Z,55.08
2022-08-31T15:01:06.151Z,55.29
2022-08-31T15:03:34.960Z,54.99
2022-08-31T15:06:05.111Z,54.85
2022-08-31T15:08:38.629Z,55.00
2022-08-31T15:11:07.780Z,54.84
2022-08-31T15:13:39.790Z,54.96
2022-08-31T15:16:08.112Z,54.58
2022-08-31T15:18:36.145Z,54.97
2022-08-31T15:21:05.017Z,55.25
2022-08-31T15:23:33.344Z,54.73
2022-08-31T15:26:06.317Z,55.19
2022-08-31T15:28:37.358Z,54.99
2022-08-31T15:31:08.959Z,55.10
2022-08-31T15:33:39.875Z,54.36
2022-08-31T15:36:09.070Z,54.68
2022-08-31T15:38:36.846Z,54.73
2022-08-31T15:41:04.790Z,54.84
2022-08-31T15:43:32.276Z,54.72
2022-08-31T15:46:01.954Z,54.49
2022-08-31T15:48:45.148Z,54.64
2022-08-31T15:51:20.579Z,53.42
2022-08-31T15:54:06.142Z,53.24
2022-08-31T15:56:40.961Z,53.26
2022-08-31T15:59:10.081Z,53.33
2022-08-31T16:01:38.899Z,53.58
2022-08-31T16:04:06.442Z,53.73
2022-08-31T16:06:34.817Z,53.98
2022-08-31T16:09:02.621Z,54.08
2022-08-31T16:11:31.117Z,54.11
2022-08-31T16:14:00.003Z,54.13
2022-08-31T16:16:31.077Z,54.47
2022-08-31T16:19:04.419Z,54.38
2022-08-31T16:21:34.384Z,54.27
2022-08-31T16:24:02.765Z,54.28
2022-08-31T16:26:30.812Z,54.27
2022-08-31T16:28:58.420Z,54.30
2022-08-31T16:31:26.305Z,54.54
2022-08-31T16:33:55.299Z,54.41
2022-08-31T16:36:24.913Z,54.41
2022-08-31T16:38:54.389Z,54.37
2022-08-31T16:41:23.815Z,54.34
2022-08-31T16:44:09.445Z,54.44
2022-08-31T16:46:41.002Z,54.55
2022-08-31T16:49:26.577Z,54.44
2022-08-31T16:51:55.813Z,54.60
2022-08-31T16:54:24.087Z,54.46
2022-08-31T16:56:52.077Z,54.70
2022-08-31T16:59:19.965Z,54.48
2022-08-31T17:01:47.615Z,54.72
2022-08-31T17:04:34.750Z,54.87
2022-08-31T17:07:06.356Z,54.83
2022-08-31T17:09:33.854Z,54.98
2022-08-31T17:12:02.170Z,54.84
2022-08-31T17:14:35.567Z,55.08
2022-08-31T17:17:03.451Z,54.98
2022-08-31T17:19:31.320Z,55.00
2022-08-31T17:22:00.923Z,54.77
2022-08-31T17:24:31.159Z,54.27
2022-08-31T17:27:01.209Z,53.83
2022-08-31T17:29:32.093Z,54.15
2022-08-31T17:32:00.333Z,54.46
2022-08-31T17:34:28.723Z,54.79
2022-08-31T17:36:56.999Z,55.07
2022-08-31T17:39:24.576Z,54.96
2022-08-31T17:41:54.598Z,54.98
2022-08-31T17:44:26.353Z,55.15
2022-08-31T17:46:53.973Z,55.30
2022-08-31T17:49:22.740Z,55.58
2022-08-31T17:51:51.094Z,55.60
2022-08-31T17:54:19.545Z,55.82
2022-08-31T17:56:48.118Z,56.12
2022-08-31T17:59:17.953Z,56.66
2022-08-31T18:01:45.917Z,56.37
2022-08-31T18:04:13.745Z,56.31
2022-08-31T18:06:42.655Z,56.29
2022-08-31T18:09:10.135Z,56.36
2022-08-31T18:11:45.860Z,56.10
2022-08-31T18:14:13.512Z,56.31
2022-08-31T18:16:42.747Z,56.23
2022-08-31T18:19:10.251Z,56.48
2022-08-31T18:21:37.760Z,56.18
2022-08-31T18:24:06.026Z,56.03
2022-08-31T18:26:35.358Z,55.88
2022-08-31T18:29:04.027Z,55.89
2022-08-31T18:31:31.585Z,55.82
2022-08-31T18:34:00.659Z,55.88
2022-08-31T18:36:28.646Z,55.89
2022-08-31T18:38:56.853Z,55.42
2022-08-31T18:41:43.364Z,55.36
2022-08-31T18:44:28.291Z,55.18
2022-08-31T18:46:58.239Z,55.06
2022-08-31T18:49:29.131Z,54.41
2022-08-31T18:51:57.352Z,54.73
2022-08-31T18:54:24.947Z,54.59
2022-08-31T18:56:52.445Z,54.47
2022-08-31T18:59:21.861Z,54.35
2022-08-31T19:01:50.514Z,54.45
2022-08-31T19:04:22.298Z,54.36
2022-08-31T19:06:53.630Z,54.62
2022-08-31T19:09:24.079Z,54.69
2022-08-31T19:11:51.888Z,54.88
2022-08-31T19:14:19.669Z,54.98
2022-08-31T19:16:51.488Z,55.01
2022-08-31T19:19:28.908Z,55.07
2022-08-31T19:21:58.112Z,55.00
2022-08-31T19:24:25.726Z,54.85
2022-08-31T19:26:56.707Z,54.69
2022-08-31T19:29:26.617Z,54.34
2022-08-31T19:31:54.955Z,54.12
2022-08-31T19:34:25.729Z,54.12
2022-08-31T19:36:55.411Z,53.99
2022-08-31T19:39:26.024Z,54.04
2022-08-31T19:41:54.499Z,53.93
2022-08-31T19:44:22.198Z,53.91
2022-08-31T19:46:53.815Z,53.61
2022-08-31T19:49:21.333Z,53.61
2022-08-31T19:51:51.884Z,53.71
2022-08-31T19:54:20.325Z,53.75
2022-08-31T19:56:49.124Z,53.83
2022-08-31T19:59:20.013Z,53.72
2022-08-31T20:01:48.438Z,53.67
2022-08-31T20:04:19.032Z,53.55
2022-08-31T20:06:46.777Z,53.64
2022-08-31T20:09:14.279Z,53.58
2022-08-31T20:11:41.892Z,53.36
2022-08-31T20:14:10.729Z,53.71
2022-08-31T20:16:41.603Z,53.74
2022-08-31T20:19:09.991Z,54.01
2022-08-31T20:21:40.445Z,54.31
2022-08-31T20:24:09.895Z,54.44
2022-08-31T20:26:47.458Z,54.78
2022-08-31T20:29:20.936Z,54.40
2022-08-31T20:31:49.473Z,54.27
2022-08-31T20:34:19.034Z,54.29
2022-08-31T20:36:48.210Z,54.22
2022-08-31T20:39:16.751Z,54.39
2022-08-31T20:41:46.726Z,54.54
2022-08-31T20:44:16.228Z,54.68
2022-08-31T20:47:04.562Z,54.52
2022-08-31T20:49:33.506Z,54.55
2022-08-31T20:52:01.850Z,54.58
2022-08-31T20:54:31.634Z,54.56
2022-08-31T20:56:59.654Z,54.86
2022-08-31T20:59:27.343Z,54.95
2022-08-31T21:01:59.204Z,54.94
2022-08-31T21:04:28.911Z,55.22
2022-08-31T21:06:57.009Z,54.84
2022-08-31T21:09:24.492Z,55.06
2022-08-31T21:11:51.945Z,55.15
2022-08-31T21:14:20.541Z,55.35
2022-08-31T21:16:48.153Z,55.39
2022-08-31T21:19:17.906Z,55.34
2022-08-31T21:21:46.268Z,55.36
2022-08-31T21:24:15.075Z,55.71
2022-08-31T21:26:42.536Z,55.78
2022-08-31T21:29:10.720Z,55.59
2022-08-31T21:31:46.361Z,55.98
2022-08-31T21:34:18.649Z,55.90
2022-08-31T21:36:46.305Z,55.86
2022-08-31T21:39:14.741Z,55.84
2022-08-31T21:41:43.009Z,56.08
2022-08-31T21:44:11.742Z,56.01
2022-08-31T21:46:39.262Z,56.24
2022-08-31T21:49:07.009Z,56.26
2022-08-31T21:51:36.685Z,56.33
2022-08-31T21:54:05.449Z,56.33
2022-08-31T21:56:34.643Z,56.18
2022-08-31T21:59:03.649Z,56.28
2022-08-31T22:01:32.906Z,56.27
2022-08-31T22:04:00.583Z,56.26
2022-08-31T22:06:29.037Z,56.48
2022-08-31T22:09:00.139Z,56.53
2022-08-31T22:11:29.938Z,56.49
2022-08-31T22:13:58.542Z,56.30
2022-08-31T22:16:26.255Z,56.49
2022-08-31T22:19:02.708Z,56.42
2022-08-31T22:21:31.400Z,56.45
2022-08-31T22:24:01.981Z,56.51
2022-08-31T22:26:30.288Z,56.63
2022-08-31T22:28:59.189Z,56.70
2022-08-31T22:31:27.305Z,56.53
2022-08-31T22:33:54.905Z,56.53
2022-08-31T22:36:31.257Z,56.68
2022-08-31T22:39:03.067Z,56.46
2022-08-31T22:41:30.658Z,56.43
2022-08-31T22:43:58.121Z,56.38
2022-08-31T22:46:25.670Z,56.54
2022-08-31T22:48:53.168Z,56.36
2022-08-31T22:51:22.315Z,56.40
2022-08-31T22:53:51.479Z,57.18
2022-08-31T22:56:21.745Z,58.85
2022-08-31T22:58:49.570Z,58.84
2022-08-31T23:01:18.754Z,58.57
2022-08-31T23:03:48.364Z,58.65
2022-08-31T23:06:16.200Z,58.44
2022-08-31T23:08:43.998Z,58.44
2022-08-31T23:11:11.489Z,58.20
2022-08-31T23:13:56.479Z,58.12
2022-08-31T23:16:26.574Z,58.01
2022-08-31T23:18:55.388Z,58.13
2022-08-31T23:21:22.816Z,58.05
2022-08-31T23:23:50.245Z,58.03
2022-08-31T23:26:19.223Z,57.88
2022-08-31T23:28:47.980Z,57.77
2022-08-31T23:31:15.485Z,57.70
2022-08-31T23:33:46.980Z,57.56
2022-08-31T23:36:14.399Z,57.68
2022-08-31T23:38:49.845Z,57.68
2022-08-31T23:41:18.979Z,57.70
2022-08-31T23:43:54.576Z,57.67
2022-08-31T23:46:23.682Z,57.46
2022-08-31T23:48:51.228Z,57.75
2022-08-31T23:51:19.934Z,57.63
2022-08-31T23:53:48.434Z,57.67
2022-08-31T23:56:15.852Z,57.62
2022-08-31T23:58:44.500Z,57.56
